sensor_id;sensor_type;location;lat;lon;timestamp;P1;durP1;ratioP1;P2;durP2;ratioP2
55112;SDS011;41006;50.920;3.456;2023-05-19T00:00:10;39.92;;;36.63;;
55112;SDS011;41006;50.920;3.456;2023-05-19T00:00:43;38.25;;;35.13;;
55112;SDS011;41006;50.920;3.456;2023-05-19T00:01:17;39.95;;;36.83;;
55112;SDS011;41006;50.920;3.456;2023-05-19T00:01:50;39.90;;;36.42;;
55112;SDS011;41006;50.920;3.456;2023-05-19T00:02:21;40.78;;;37.28;;
55112;SDS011;41006;50.920;3.456;2023-05-19T00:02:52;39.65;;;36.45;;
55112;SDS011;41006;50.920;3.456;2023-05-19T00:03:29;39.90;;;36.97;;
55112;SDS011;41006;50.920;3.456;2023-05-19T00:04:00;41.90;;;38.50;;
55112;SDS011;41006;50.920;3.456;2023-05-19T00:04:31;42.17;;;39.00;;
55112;SDS011;41006;50.920;3.456;2023-05-19T00:05:12;40.65;;;37.78;;
55112;SDS011;41006;50.920;3.456;2023-05-19T00:05:47;42.50;;;39.28;;
55112;SDS011;41006;50.920;3.456;2023-05-19T00:06:27;43.10;;;39.50;;
55112;SDS011;41006;50.920;3.456;2023-05-19T00:07:02;40.25;;;37.45;;
55112;SDS011;41006;50.920;3.456;2023-05-19T00:07:37;42.47;;;39.17;;
55112;SDS011;41006;50.920;3.456;2023-05-19T00:08:08;41.28;;;37.25;;
55112;SDS011;41006;50.920;3.456;2023-05-19T00:08:45;42.00;;;38.85;;
55112;SDS011;41006;50.920;3.456;2023-05-19T00:09:16;44.08;;;40.30;;
55112;SDS011;41006;50.920;3.456;2023-05-19T00:09:50;42.75;;;39.40;;
55112;SDS011;41006;50.920;3.456;2023-05-19T00:10:25;42.80;;;39.08;;
55112;SDS011;41006;50.920;3.456;2023-05-19T00:11:00;42.35;;;39.22;;
55112;SDS011;41006;50.920;3.456;2023-05-19T00:11:36;42.15;;;38.78;;
55112;SDS011;41006;50.920;3.456;2023-05-19T00:12:08;41.47;;;38.15;;
55112;SDS011;41006;50.920;3.456;2023-05-19T00:12:39;42.70;;;39.00;;
55112;SDS011;41006;50.920;3.456;2023-05-19T00:13:11;41.22;;;37.53;;
55112;SDS011;41006;50.920;3.456;2023-05-19T00:13:44;42.80;;;39.30;;
55112;SDS011;41006;50.920;3.456;2023-05-19T00:14:18;42.65;;;39.13;;
55112;SDS011;41006;50.920;3.456;2023-05-19T00:14:49;44.28;;;40.67;;
55112;SDS011;41006;50.920;3.456;2023-05-19T00:15:22;41.70;;;38.25;;
55112;SDS011;41006;50.920;3.456;2023-05-19T00:15:58;41.15;;;38.33;;
55112;SDS011;41006;50.920;3.456;2023-05-19T00:16:29;40.88;;;37.88;;
55112;SDS011;41006;50.920;3.456;2023-05-19T00:17:00;43.03;;;39.58;;
55112;SDS011;41006;50.920;3.456;2023-05-19T00:17:35;42.10;;;38.75;;
55112;SDS011;41006;50.920;3.456;2023-05-19T00:18:07;41.45;;;38.25;;
55112;SDS011;41006;50.920;3.456;2023-05-19T00:18:42;42.40;;;38.88;;
55112;SDS011;41006;50.920;3.456;2023-05-19T00:19:17;41.92;;;38.53;;
55112;SDS011;41006;50.920;3.456;2023-05-19T00:19:49;39.08;;;36.20;;
55112;SDS011;41006;50.920;3.456;2023-05-19T00:20:23;42.45;;;38.97;;
55112;SDS011;41006;50.920;3.456;2023-05-19T00:20:56;43.78;;;40.30;;
55112;SDS011;41006;50.920;3.456;2023-05-19T00:21:27;43.70;;;40.13;;
55112;SDS011;41006;50.920;3.456;2023-05-19T00:22:03;41.92;;;38.47;;
55112;SDS011;41006;50.920;3.456;2023-05-19T00:22:35;43.30;;;39.75;;
55112;SDS011;41006;50.920;3.456;2023-05-19T00:23:06;41.67;;;38.33;;
55112;SDS011;41006;50.920;3.456;2023-05-19T00:23:39;43.20;;;39.53;;
55112;SDS011;41006;50.920;3.456;2023-05-19T00:24:12;41.10;;;38.10;;
55112;SDS011;41006;50.920;3.456;2023-05-19T00:24:43;39.85;;;36.28;;
55112;SDS011;41006;50.920;3.456;2023-05-19T00:25:13;41.38;;;38.05;;
55112;SDS011;41006;50.920;3.456;2023-05-19T00:25:46;40.90;;;37.42;;
55112;SDS011;41006;50.920;3.456;2023-05-19T00:26:17;41.25;;;37.63;;
55112;SDS011;41006;50.920;3.456;2023-05-19T00:26:50;42.40;;;38.70;;
55112;SDS011;41006;50.920;3.456;2023-05-19T00:27:21;42.88;;;39.38;;
55112;SDS011;41006;50.920;3.456;2023-05-19T00:27:51;41.20;;;37.63;;
55112;SDS011;41006;50.920;3.456;2023-05-19T00:28:24;42.53;;;38.97;;
55112;SDS011;41006;50.920;3.456;2023-05-19T00:28:57;42.92;;;39.45;;
55112;SDS011;41006;50.920;3.456;2023-05-19T00:29:27;41.45;;;37.97;;
55112;SDS011;41006;50.920;3.456;2023-05-19T00:30:00;42.60;;;39.47;;
55112;SDS011;41006;50.920;3.456;2023-05-19T00:30:31;42.40;;;39.22;;
55112;SDS011;41006;50.920;3.456;2023-05-19T00:31:02;41.50;;;37.95;;
55112;SDS011;41006;50.920;3.456;2023-05-19T00:31:36;43.47;;;39.22;;
55112;SDS011;41006;50.920;3.456;2023-05-19T00:32:09;41.10;;;37.67;;
55112;SDS011;41006;50.920;3.456;2023-05-19T00:32:44;40.10;;;37.00;;
55112;SDS011;41006;50.920;3.456;2023-05-19T00:33:14;41.00;;;37.17;;
55112;SDS011;41006;50.920;3.456;2023-05-19T00:33:44;41.08;;;37.88;;
55112;SDS011;41006;50.920;3.456;2023-05-19T00:34:15;40.80;;;37.50;;
55112;SDS011;41006;50.920;3.456;2023-05-19T00:34:48;41.22;;;38.08;;
55112;SDS011;41006;50.920;3.456;2023-05-19T00:35:23;41.88;;;38.38;;
55112;SDS011;41006;50.920;3.456;2023-05-19T00:35:53;40.35;;;37.17;;
55112;SDS011;41006;50.920;3.456;2023-05-19T00:36:23;43.97;;;39.97;;
55112;SDS011;41006;50.920;3.456;2023-05-19T00:36:59;41.03;;;37.63;;
55112;SDS011;41006;50.920;3.456;2023-05-19T00:37:31;43.05;;;39.25;;
55112;SDS011;41006;50.920;3.456;2023-05-19T00:38:04;40.15;;;36.72;;
55112;SDS011;41006;50.920;3.456;2023-05-19T00:38:37;41.85;;;38.67;;
55112;SDS011;41006;50.920;3.456;2023-05-19T00:39:12;41.75;;;38.33;;
55112;SDS011;41006;50.920;3.456;2023-05-19T00:39:43;41.10;;;37.40;;
55112;SDS011;41006;50.920;3.456;2023-05-19T00:40:13;41.03;;;37.33;;
55112;SDS011;41006;50.920;3.456;2023-05-19T00:40:44;42.00;;;38.70;;
55112;SDS011;41006;50.920;3.456;2023-05-19T00:41:14;39.55;;;36.28;;
55112;SDS011;41006;50.920;3.456;2023-05-19T00:41:45;40.50;;;37.28;;
55112;SDS011;41006;50.920;3.456;2023-05-19T00:42:20;42.25;;;38.72;;
55112;SDS011;41006;50.920;3.456;2023-05-19T00:42:51;39.60;;;36.33;;
55112;SDS011;41006;50.920;3.456;2023-05-19T00:43:21;41.35;;;38.13;;
55112;SDS011;41006;50.920;3.456;2023-05-19T00:43:55;42.95;;;39.55;;
55112;SDS011;41006;50.920;3.456;2023-05-19T00:44:25;42.90;;;39.45;;
55112;SDS011;41006;50.920;3.456;2023-05-19T00:44:55;41.28;;;38.03;;
55112;SDS011;41006;50.920;3.456;2023-05-19T00:45:28;41.92;;;38.63;;
55112;SDS011;41006;50.920;3.456;2023-05-19T00:46:01;41.33;;;37.85;;
55112;SDS011;41006;50.920;3.456;2023-05-19T00:46:34;42.17;;;38.33;;
55112;SDS011;41006;50.920;3.456;2023-05-19T00:47:04;41.55;;;37.95;;
55112;SDS011;41006;50.920;3.456;2023-05-19T00:47:35;39.70;;;36.70;;
55112;SDS011;41006;50.920;3.456;2023-05-19T00:48:10;41.63;;;38.53;;
55112;SDS011;41006;50.920;3.456;2023-05-19T00:48:43;42.38;;;39.13;;
55112;SDS011;41006;50.920;3.456;2023-05-19T00:49:18;40.15;;;37.00;;
55112;SDS011;41006;50.920;3.456;2023-05-19T00:49:51;41.92;;;37.78;;
55112;SDS011;41006;50.920;3.456;2023-05-19T00:50:21;40.30;;;36.85;;
55112;SDS011;41006;50.920;3.456;2023-05-19T00:50:54;41.45;;;37.85;;
55112;SDS011;41006;50.920;3.456;2023-05-19T00:51:30;42.80;;;39.28;;
55112;SDS011;41006;50.920;3.456;2023-05-19T00:52:01;42.60;;;38.85;;
55112;SDS011;41006;50.920;3.456;2023-05-19T00:52:35;41.75;;;38.38;;
55112;SDS011;41006;50.920;3.456;2023-05-19T00:53:05;41.75;;;38.47;;
55112;SDS011;41006;50.920;3.456;2023-05-19T00:53:36;43.42;;;39.70;;
55112;SDS011;41006;50.920;3.456;2023-05-19T00:54:06;43.58;;;40.00;;
55112;SDS011;41006;50.920;3.456;2023-05-19T00:54:37;42.13;;;38.70;;
55112;SDS011;41006;50.920;3.456;2023-05-19T00:55:07;42.17;;;38.60;;
55112;SDS011;41006;50.920;3.456;2023-05-19T00:55:39;43.15;;;39.40;;
55112;SDS011;41006;50.920;3.456;2023-05-19T00:56:11;42.75;;;39.20;;
55112;SDS011;41006;50.920;3.456;2023-05-19T00:56:44;41.35;;;38.30;;
55112;SDS011;41006;50.920;3.456;2023-05-19T00:57:15;42.47;;;38.60;;
55112;SDS011;41006;50.920;3.456;2023-05-19T00:57:48;43.72;;;39.92;;
55112;SDS011;41006;50.920;3.456;2023-05-19T00:58:19;43.83;;;40.40;;
55112;SDS011;41006;50.920;3.456;2023-05-19T00:58:50;42.15;;;39.00;;
55112;SDS011;41006;50.920;3.456;2023-05-19T00:59:20;42.65;;;39.00;;
55112;SDS011;41006;50.920;3.456;2023-05-19T00:59:53;42.78;;;39.28;;
55112;SDS011;41006;50.920;3.456;2023-05-19T01:00:29;44.22;;;40.33;;
55112;SDS011;41006;50.920;3.456;2023-05-19T01:01:02;43.88;;;40.35;;
55112;SDS011;41006;50.920;3.456;2023-05-19T01:01:33;43.20;;;39.67;;
55112;SDS011;41006;50.920;3.456;2023-05-19T01:02:04;43.20;;;39.78;;
55112;SDS011;41006;50.920;3.456;2023-05-19T01:02:35;41.78;;;38.25;;
55112;SDS011;41006;50.920;3.456;2023-05-19T01:03:10;43.55;;;39.58;;
55112;SDS011;41006;50.920;3.456;2023-05-19T01:03:43;43.78;;;39.92;;
55112;SDS011;41006;50.920;3.456;2023-05-19T01:04:19;44.35;;;40.17;;
55112;SDS011;41006;50.920;3.456;2023-05-19T01:04:50;43.45;;;39.75;;
55112;SDS011;41006;50.920;3.456;2023-05-19T01:05:22;41.92;;;38.25;;
55112;SDS011;41006;50.920;3.456;2023-05-19T01:05:55;40.97;;;37.60;;
55112;SDS011;41006;50.920;3.456;2023-05-19T01:06:27;41.45;;;38.33;;
55112;SDS011;41006;50.920;3.456;2023-05-19T01:07:01;42.65;;;39.08;;
55112;SDS011;41006;50.920;3.456;2023-05-19T01:07:31;43.67;;;39.58;;
55112;SDS011;41006;50.920;3.456;2023-05-19T01:08:05;42.80;;;39.47;;
55112;SDS011;41006;50.920;3.456;2023-05-19T01:08:37;41.75;;;38.42;;
55112;SDS011;41006;50.920;3.456;2023-05-19T01:09:08;42.60;;;39.17;;
55112;SDS011;41006;50.920;3.456;2023-05-19T01:09:41;43.40;;;39.58;;
55112;SDS011;41006;50.920;3.456;2023-05-19T01:10:14;40.47;;;37.30;;
55112;SDS011;41006;50.920;3.456;2023-05-19T01:10:44;42.75;;;39.22;;
55112;SDS011;41006;50.920;3.456;2023-05-19T01:11:14;44.20;;;40.40;;
55112;SDS011;41006;50.920;3.456;2023-05-19T01:11:45;42.30;;;39.05;;
55112;SDS011;41006;50.920;3.456;2023-05-19T01:12:17;43.08;;;39.30;;
55112;SDS011;41006;50.920;3.456;2023-05-19T01:12:48;43.25;;;39.67;;
55112;SDS011;41006;50.920;3.456;2023-05-19T01:13:18;44.50;;;40.38;;
55112;SDS011;41006;50.920;3.456;2023-05-19T01:13:48;41.78;;;38.08;;
55112;SDS011;41006;50.920;3.456;2023-05-19T01:14:24;43.92;;;40.50;;
55112;SDS011;41006;50.920;3.456;2023-05-19T01:14:54;45.35;;;41.70;;
55112;SDS011;41006;50.920;3.456;2023-05-19T01:15:27;43.08;;;39.72;;
55112;SDS011;41006;50.920;3.456;2023-05-19T01:16:46;43.97;;;40.03;;
55112;SDS011;41006;50.920;3.456;2023-05-19T01:17:26;43.58;;;39.53;;
55112;SDS011;41006;50.920;3.456;2023-05-19T01:18:07;42.85;;;39.38;;
55112;SDS011;41006;50.920;3.456;2023-05-19T01:18:48;42.53;;;39.05;;
55112;SDS011;41006;50.920;3.456;2023-05-19T01:20:37;45.53;;;41.53;;
55112;SDS011;41006;50.920;3.456;2023-05-19T01:22:09;42.55;;;39.00;;
55112;SDS011;41006;50.920;3.456;2023-05-19T01:26:44;41.97;;;38.70;;
55112;SDS011;41006;50.920;3.456;2023-05-19T01:30:42;41.75;;;37.83;;
55112;SDS011;41006;50.920;3.456;2023-05-19T01:31:16;39.78;;;36.40;;
55112;SDS011;41006;50.920;3.456;2023-05-19T01:31:52;38.45;;;35.38;;
55112;SDS011;41006;50.920;3.456;2023-05-19T01:32:25;38.28;;;34.88;;
55112;SDS011;41006;50.920;3.456;2023-05-19T01:33:02;38.22;;;34.90;;
55112;SDS011;41006;50.920;3.456;2023-05-19T01:33:35;39.65;;;36.05;;
55112;SDS011;41006;50.920;3.456;2023-05-19T01:34:09;38.25;;;34.97;;
55112;SDS011;41006;50.920;3.456;2023-05-19T01:34:44;40.00;;;36.63;;
55112;SDS011;41006;50.920;3.456;2023-05-19T01:35:19;38.45;;;34.95;;
55112;SDS011;41006;50.920;3.456;2023-05-19T01:35:55;39.65;;;35.85;;
55112;SDS011;41006;50.920;3.456;2023-05-19T01:36:31;38.88;;;35.50;;
55112;SDS011;41006;50.920;3.456;2023-05-19T01:37:05;38.17;;;34.63;;
55112;SDS011;41006;50.920;3.456;2023-05-19T01:37:39;38.40;;;34.90;;
55112;SDS011;41006;50.920;3.456;2023-05-19T01:38:10;37.47;;;34.15;;
55112;SDS011;41006;50.920;3.456;2023-05-19T01:38:44;39.83;;;36.03;;
55112;SDS011;41006;50.920;3.456;2023-05-19T01:39:15;39.90;;;36.42;;
55112;SDS011;41006;50.920;3.456;2023-05-19T01:39:48;39.38;;;35.90;;
55112;SDS011;41006;50.920;3.456;2023-05-19T01:40:22;39.58;;;35.75;;
55112;SDS011;41006;50.920;3.456;2023-05-19T01:40:56;38.63;;;35.42;;
55112;SDS011;41006;50.920;3.456;2023-05-19T01:41:29;38.95;;;35.55;;
55112;SDS011;41006;50.920;3.456;2023-05-19T01:42:03;38.45;;;35.35;;
55112;SDS011;41006;50.920;3.456;2023-05-19T01:42:37;40.35;;;37.15;;
55112;SDS011;41006;50.920;3.456;2023-05-19T01:43:13;41.17;;;37.97;;
55112;SDS011;41006;50.920;3.456;2023-05-19T01:43:49;40.13;;;36.78;;
55112;SDS011;41006;50.920;3.456;2023-05-19T01:44:22;40.03;;;36.78;;
55112;SDS011;41006;50.920;3.456;2023-05-19T01:44:53;41.78;;;38.15;;
55112;SDS011;41006;50.920;3.456;2023-05-19T01:45:26;41.35;;;37.67;;
55112;SDS011;41006;50.920;3.456;2023-05-19T01:46:01;41.65;;;37.65;;
55112;SDS011;41006;50.920;3.456;2023-05-19T01:46:34;39.83;;;36.60;;
55112;SDS011;41006;50.920;3.456;2023-05-19T01:47:06;38.78;;;35.60;;
55112;SDS011;41006;50.920;3.456;2023-05-19T01:47:45;39.53;;;36.03;;
55112;SDS011;41006;50.920;3.456;2023-05-19T01:48:19;41.67;;;37.83;;
55112;SDS011;41006;50.920;3.456;2023-05-19T01:48:53;38.45;;;35.13;;
55112;SDS011;41006;50.920;3.456;2023-05-19T01:49:28;39.63;;;36.05;;
55112;SDS011;41006;50.920;3.456;2023-05-19T01:49:59;39.95;;;36.88;;
55112;SDS011;41006;50.920;3.456;2023-05-19T01:50:30;40.08;;;36.65;;
55112;SDS011;41006;50.920;3.456;2023-05-19T01:51:04;41.50;;;38.20;;
55112;SDS011;41006;50.920;3.456;2023-05-19T01:51:34;40.08;;;36.70;;
55112;SDS011;41006;50.920;3.456;2023-05-19T01:52:05;41.72;;;38.28;;
55112;SDS011;41006;50.920;3.456;2023-05-19T01:52:35;40.38;;;37.13;;
55112;SDS011;41006;50.920;3.456;2023-05-19T01:53:08;41.42;;;38.10;;
55112;SDS011;41006;50.920;3.456;2023-05-19T01:53:43;40.35;;;36.65;;
55112;SDS011;41006;50.920;3.456;2023-05-19T01:54:15;39.65;;;36.55;;
55112;SDS011;41006;50.920;3.456;2023-05-19T01:54:48;38.75;;;35.70;;
55112;SDS011;41006;50.920;3.456;2023-05-19T01:55:21;39.50;;;36.00;;
55112;SDS011;41006;50.920;3.456;2023-05-19T01:55:55;38.70;;;35.70;;
55112;SDS011;41006;50.920;3.456;2023-05-19T01:57:28;38.65;;;35.53;;
55112;SDS011;41006;50.920;3.456;2023-05-19T01:58:57;41.63;;;38.22;;
55112;SDS011;41006;50.920;3.456;2023-05-19T01:59:51;39.78;;;36.50;;
55112;SDS011;41006;50.920;3.456;2023-05-19T02:01:29;41.55;;;38.20;;
55112;SDS011;41006;50.920;3.456;2023-05-19T02:02:25;41.40;;;37.90;;
55112;SDS011;41006;50.920;3.456;2023-05-19T02:04:42;41.75;;;38.40;;
55112;SDS011;41006;50.920;3.456;2023-05-19T02:05:26;42.78;;;39.10;;
55112;SDS011;41006;50.920;3.456;2023-05-19T02:08:33;43.88;;;40.28;;
55112;SDS011;41006;50.920;3.456;2023-05-19T02:10:26;42.40;;;38.97;;
55112;SDS011;41006;50.920;3.456;2023-05-19T02:11:02;41.45;;;37.80;;
55112;SDS011;41006;50.920;3.456;2023-05-19T02:11:41;41.03;;;37.78;;
55112;SDS011;41006;50.920;3.456;2023-05-19T02:12:23;42.13;;;38.47;;
55112;SDS011;41006;50.920;3.456;2023-05-19T02:12:57;42.00;;;38.60;;
55112;SDS011;41006;50.920;3.456;2023-05-19T02:13:37;40.05;;;36.85;;
55112;SDS011;41006;50.920;3.456;2023-05-19T02:15:20;43.15;;;39.25;;
55112;SDS011;41006;50.920;3.456;2023-05-19T02:15:55;41.80;;;38.20;;
55112;SDS011;41006;50.920;3.456;2023-05-19T02:16:33;42.85;;;39.35;;
55112;SDS011;41006;50.920;3.456;2023-05-19T02:17:08;40.67;;;37.42;;
55112;SDS011;41006;50.920;3.456;2023-05-19T02:17:42;41.20;;;37.67;;
55112;SDS011;41006;50.920;3.456;2023-05-19T02:18:17;42.95;;;38.53;;
55112;SDS011;41006;50.920;3.456;2023-05-19T02:18:50;41.10;;;37.85;;
55112;SDS011;41006;50.920;3.456;2023-05-19T02:19:24;40.58;;;37.40;;
55112;SDS011;41006;50.920;3.456;2023-05-19T02:20:00;41.17;;;37.47;;
55112;SDS011;41006;50.920;3.456;2023-05-19T02:20:33;43.22;;;39.17;;
55112;SDS011;41006;50.920;3.456;2023-05-19T02:21:06;40.70;;;37.22;;
55112;SDS011;41006;50.920;3.456;2023-05-19T02:21:42;41.85;;;37.92;;
55112;SDS011;41006;50.920;3.456;2023-05-19T02:22:14;41.42;;;37.75;;
55112;SDS011;41006;50.920;3.456;2023-05-19T02:22:45;42.17;;;38.50;;
55112;SDS011;41006;50.920;3.456;2023-05-19T02:23:18;42.13;;;38.30;;
55112;SDS011;41006;50.920;3.456;2023-05-19T02:23:52;41.17;;;37.38;;
55112;SDS011;41006;50.920;3.456;2023-05-19T02:24:23;41.10;;;37.33;;
55112;SDS011;41006;50.920;3.456;2023-05-19T02:24:53;41.83;;;37.53;;
55112;SDS011;41006;50.920;3.456;2023-05-19T02:25:29;41.40;;;37.58;;
55112;SDS011;41006;50.920;3.456;2023-05-19T02:26:00;39.97;;;36.25;;
55112;SDS011;41006;50.920;3.456;2023-05-19T02:26:31;40.83;;;37.20;;
55112;SDS011;41006;50.920;3.456;2023-05-19T02:27:02;42.08;;;38.17;;
55112;SDS011;41006;50.920;3.456;2023-05-19T02:27:33;40.35;;;36.67;;
55112;SDS011;41006;50.920;3.456;2023-05-19T02:28:06;40.30;;;36.75;;
55112;SDS011;41006;50.920;3.456;2023-05-19T02:28:36;40.50;;;36.85;;
55112;SDS011;41006;50.920;3.456;2023-05-19T02:29:06;40.70;;;37.15;;
55112;SDS011;41006;50.920;3.456;2023-05-19T02:29:39;41.63;;;38.00;;
55112;SDS011;41006;50.920;3.456;2023-05-19T02:30:09;41.83;;;38.03;;
55112;SDS011;41006;50.920;3.456;2023-05-19T02:30:42;40.97;;;37.17;;
55112;SDS011;41006;50.920;3.456;2023-05-19T02:31:17;39.80;;;36.38;;
55112;SDS011;41006;50.920;3.456;2023-05-19T02:31:47;40.15;;;36.42;;
55112;SDS011;41006;50.920;3.456;2023-05-19T02:32:18;39.28;;;35.58;;
55112;SDS011;41006;50.920;3.456;2023-05-19T02:32:51;39.80;;;35.60;;
55112;SDS011;41006;50.920;3.456;2023-05-19T02:33:27;38.92;;;35.47;;
55112;SDS011;41006;50.920;3.456;2023-05-19T02:34:00;40.63;;;36.58;;
55112;SDS011;41006;50.920;3.456;2023-05-19T02:34:30;37.58;;;34.58;;
55112;SDS011;41006;50.920;3.456;2023-05-19T02:35:03;39.85;;;36.35;;
55112;SDS011;41006;50.920;3.456;2023-05-19T02:35:37;40.72;;;36.95;;
55112;SDS011;41006;50.920;3.456;2023-05-19T02:36:07;38.40;;;35.03;;
55112;SDS011;41006;50.920;3.456;2023-05-19T02:36:39;40.60;;;36.90;;
55112;SDS011;41006;50.920;3.456;2023-05-19T02:37:15;38.67;;;35.22;;
55112;SDS011;41006;50.920;3.456;2023-05-19T02:37:48;40.22;;;36.28;;
55112;SDS011;41006;50.920;3.456;2023-05-19T02:38:21;38.80;;;35.22;;
55112;SDS011;41006;50.920;3.456;2023-05-19T02:38:51;40.78;;;36.90;;
55112;SDS011;41006;50.920;3.456;2023-05-19T02:39:22;41.75;;;37.70;;
55112;SDS011;41006;50.920;3.456;2023-05-19T02:39:55;39.80;;;36.15;;
55112;SDS011;41006;50.920;3.456;2023-05-19T02:40:27;39.58;;;36.03;;
55112;SDS011;41006;50.920;3.456;2023-05-19T02:40:58;39.83;;;36.28;;
55112;SDS011;41006;50.920;3.456;2023-05-19T02:41:31;42.05;;;37.88;;
55112;SDS011;41006;50.920;3.456;2023-05-19T02:42:01;42.50;;;37.63;;
55112;SDS011;41006;50.920;3.456;2023-05-19T02:42:32;41.45;;;37.53;;
55112;SDS011;41006;50.920;3.456;2023-05-19T02:43:02;41.05;;;37.33;;
55112;SDS011;41006;50.920;3.456;2023-05-19T02:43:32;42.83;;;38.78;;
55112;SDS011;41006;50.920;3.456;2023-05-19T02:44:05;41.03;;;37.65;;
55112;SDS011;41006;50.920;3.456;2023-05-19T02:44:41;41.00;;;37.30;;
55112;SDS011;41006;50.920;3.456;2023-05-19T02:45:13;39.90;;;36.20;;
55112;SDS011;41006;50.920;3.456;2023-05-19T02:45:44;40.97;;;36.88;;
55112;SDS011;41006;50.920;3.456;2023-05-19T02:46:15;40.80;;;37.15;;
55112;SDS011;41006;50.920;3.456;2023-05-19T02:46:47;41.75;;;38.00;;
55112;SDS011;41006;50.920;3.456;2023-05-19T02:47:21;39.03;;;35.38;;
55112;SDS011;41006;50.920;3.456;2023-05-19T02:47:52;40.83;;;37.22;;
55112;SDS011;41006;50.920;3.456;2023-05-19T02:48:22;40.70;;;36.75;;
55112;SDS011;41006;50.920;3.456;2023-05-19T02:48:57;40.20;;;36.53;;
55112;SDS011;41006;50.920;3.456;2023-05-19T02:49:30;41.30;;;37.00;;
55112;SDS011;41006;50.920;3.456;2023-05-19T02:50:04;41.08;;;37.40;;
55112;SDS011;41006;50.920;3.456;2023-05-19T02:50:35;39.53;;;36.38;;
55112;SDS011;41006;50.920;3.456;2023-05-19T02:51:08;42.72;;;38.45;;
55112;SDS011;41006;50.920;3.456;2023-05-19T02:51:43;41.30;;;37.58;;
55112;SDS011;41006;50.920;3.456;2023-05-19T02:52:15;41.03;;;37.40;;
55112;SDS011;41006;50.920;3.456;2023-05-19T02:52:48;41.38;;;37.47;;
55112;SDS011;41006;50.920;3.456;2023-05-19T02:53:18;41.72;;;37.75;;
55112;SDS011;41006;50.920;3.456;2023-05-19T02:53:49;41.42;;;37.88;;
55112;SDS011;41006;50.920;3.456;2023-05-19T02:54:19;40.72;;;37.17;;
55112;SDS011;41006;50.920;3.456;2023-05-19T02:54:50;41.78;;;37.83;;
55112;SDS011;41006;50.920;3.456;2023-05-19T02:55:22;40.17;;;36.05;;
55112;SDS011;41006;50.920;3.456;2023-05-19T02:55:53;39.78;;;36.33;;
55112;SDS011;41006;50.920;3.456;2023-05-19T02:56:27;38.85;;;35.25;;
55112;SDS011;41006;50.920;3.456;2023-05-19T02:57:00;40.22;;;36.55;;
55112;SDS011;41006;50.920;3.456;2023-05-19T02:57:31;40.50;;;36.90;;
55112;SDS011;41006;50.920;3.456;2023-05-19T02:58:04;42.40;;;38.00;;
55112;SDS011;41006;50.920;3.456;2023-05-19T02:58:37;40.50;;;36.95;;
55112;SDS011;41006;50.920;3.456;2023-05-19T02:59:08;40.03;;;36.50;;
55112;SDS011;41006;50.920;3.456;2023-05-19T02:59:38;39.75;;;36.25;;
55112;SDS011;41006;50.920;3.456;2023-05-19T03:00:11;39.22;;;35.70;;
55112;SDS011;41006;50.920;3.456;2023-05-19T03:00:42;39.67;;;36.13;;
55112;SDS011;41006;50.920;3.456;2023-05-19T03:01:14;38.88;;;35.55;;
55112;SDS011;41006;50.920;3.456;2023-05-19T03:01:45;39.40;;;35.67;;
55112;SDS011;41006;50.920;3.456;2023-05-19T03:02:18;39.70;;;36.15;;
55112;SDS011;41006;50.920;3.456;2023-05-19T03:02:48;38.78;;;35.05;;
55112;SDS011;41006;50.920;3.456;2023-05-19T03:03:19;39.47;;;35.88;;
55112;SDS011;41006;50.920;3.456;2023-05-19T03:03:51;39.88;;;35.97;;
55112;SDS011;41006;50.920;3.456;2023-05-19T03:04:24;38.03;;;34.92;;
55112;SDS011;41006;50.920;3.456;2023-05-19T03:04:55;41.13;;;37.05;;
55112;SDS011;41006;50.920;3.456;2023-05-19T03:05:30;41.10;;;36.88;;
55112;SDS011;41006;50.920;3.456;2023-05-19T03:06:00;40.88;;;36.95;;
55112;SDS011;41006;50.920;3.456;2023-05-19T03:06:33;39.90;;;36.28;;
55112;SDS011;41006;50.920;3.456;2023-05-19T03:07:08;40.15;;;36.22;;
55112;SDS011;41006;50.920;3.456;2023-05-19T03:07:39;41.13;;;36.95;;
55112;SDS011;41006;50.920;3.456;2023-05-19T03:08:09;39.42;;;35.80;;
55112;SDS011;41006;50.920;3.456;2023-05-19T03:08:42;39.72;;;36.05;;
55112;SDS011;41006;50.920;3.456;2023-05-19T03:09:13;39.75;;;36.42;;
55112;SDS011;41006;50.920;3.456;2023-05-19T03:09:45;40.47;;;37.17;;
55112;SDS011;41006;50.920;3.456;2023-05-19T03:10:18;39.70;;;36.35;;
55112;SDS011;41006;50.920;3.456;2023-05-19T03:10:48;39.08;;;35.47;;
55112;SDS011;41006;50.920;3.456;2023-05-19T03:11:23;41.17;;;37.25;;
55112;SDS011;41006;50.920;3.456;2023-05-19T03:11:55;40.60;;;37.03;;
55112;SDS011;41006;50.920;3.456;2023-05-19T03:12:25;41.13;;;37.05;;
55112;SDS011;41006;50.920;3.456;2023-05-19T03:13:00;40.80;;;37.20;;
55112;SDS011;41006;50.920;3.456;2023-05-19T03:13:35;40.42;;;36.85;;
55112;SDS011;41006;50.920;3.456;2023-05-19T03:14:05;39.65;;;36.10;;
55112;SDS011;41006;50.920;3.456;2023-05-19T03:14:38;39.65;;;36.13;;
55112;SDS011;41006;50.920;3.456;2023-05-19T03:15:13;40.90;;;36.90;;
55112;SDS011;41006;50.920;3.456;2023-05-19T03:15:44;39.42;;;35.83;;
55112;SDS011;41006;50.920;3.456;2023-05-19T03:16:16;40.45;;;36.88;;
55112;SDS011;41006;50.920;3.456;2023-05-19T03:16:49;40.80;;;37.28;;
55112;SDS011;41006;50.920;3.456;2023-05-19T03:17:19;40.38;;;36.88;;
55112;SDS011;41006;50.920;3.456;2023-05-19T03:17:52;36.40;;;33.05;;
55112;SDS011;41006;50.920;3.456;2023-05-19T03:18:25;37.50;;;34.47;;
55112;SDS011;41006;50.920;3.456;2023-05-19T03:18:58;38.30;;;34.78;;
55112;SDS011;41006;50.920;3.456;2023-05-19T03:19:31;37.58;;;34.25;;
55112;SDS011;41006;50.920;3.456;2023-05-19T03:20:07;38.05;;;34.72;;
55112;SDS011;41006;50.920;3.456;2023-05-19T03:20:37;37.45;;;34.05;;
55112;SDS011;41006;50.920;3.456;2023-05-19T03:21:11;36.53;;;32.95;;
55112;SDS011;41006;50.920;3.456;2023-05-19T03:21:41;36.45;;;33.08;;
55112;SDS011;41006;50.920;3.456;2023-05-19T03:22:14;38.03;;;34.63;;
55112;SDS011;41006;50.920;3.456;2023-05-19T03:22:47;36.78;;;33.40;;
55112;SDS011;41006;50.920;3.456;2023-05-19T03:23:20;38.15;;;34.80;;
55112;SDS011;41006;50.920;3.456;2023-05-19T03:23:51;38.85;;;35.40;;
55112;SDS011;41006;50.920;3.456;2023-05-19T03:24:21;38.13;;;34.50;;
55112;SDS011;41006;50.920;3.456;2023-05-19T03:24:52;38.28;;;34.60;;
55112;SDS011;41006;50.920;3.456;2023-05-19T03:25:24;37.33;;;33.90;;
55112;SDS011;41006;50.920;3.456;2023-05-19T03:25:55;37.70;;;34.50;;
55112;SDS011;41006;50.920;3.456;2023-05-19T03:26:25;37.50;;;34.13;;
55112;SDS011;41006;50.920;3.456;2023-05-19T03:26:55;40.47;;;36.45;;
55112;SDS011;41006;50.920;3.456;2023-05-19T03:27:26;36.88;;;33.78;;
55112;SDS011;41006;50.920;3.456;2023-05-19T03:27:59;37.35;;;34.42;;
55112;SDS011;41006;50.920;3.456;2023-05-19T03:28:29;37.88;;;34.10;;
55112;SDS011;41006;50.920;3.456;2023-05-19T03:28:59;39.20;;;35.90;;
55112;SDS011;41006;50.920;3.456;2023-05-19T03:29:30;38.53;;;35.38;;
55112;SDS011;41006;50.920;3.456;2023-05-19T03:30:02;40.53;;;37.05;;
55112;SDS011;41006;50.920;3.456;2023-05-19T03:30:36;38.83;;;35.40;;
55112;SDS011;41006;50.920;3.456;2023-05-19T03:31:09;38.20;;;35.05;;
55112;SDS011;41006;50.920;3.456;2023-05-19T03:31:42;40.80;;;36.88;;
55112;SDS011;41006;50.920;3.456;2023-05-19T03:32:14;36.80;;;33.80;;